Time;durP1;ratioP1;P1;durP2;ratioP2;P2;SDS_P1;SDS_P2;PMS_P1;PMS_P2;Temp;Humidity;BMP_temperature;BMP_pressure;BME280_temperature;BME280_humidity;BME280_pressure;Samples;Min_cycle;Max_cycle;Signal;HPM_P1;HPM_P2
2021/05/08 00:00:43;;;;;;;6.03;4.00;;;8.60;68.70;;;;;;5023225;28;20185;-90
2021/05/08 00:03:09;;;;;;;4.43;4.03;;;8.70;68.40;;;;;;5022799;28;20220;-90
2021/05/08 00:05:35;;;;;;;4.23;3.80;;;8.70;68.00;;;;;;5023078;28;20254;-90
2021/05/08 00:08:01;;;;;;;3.93;3.53;;;8.70;68.10;;;;;;5022679;28;20990;-90
2021/05/08 00:10:27;;;;;;;3.87;3.50;;;8.70;67.50;;;;;;5021937;28;20184;-90
2021/05/08 00:12:53;;;;;;;5.40;3.70;;;8.60;67.60;;;;;;5022445;28;20253;-90
2021/05/08 00:15:19;;;;;;;3.97;3.67;;;8.60;67.40;;;;;;5022862;28;20189;-90
2021/05/08 00:17:45;;;;;;;4.57;4.17;;;8.70;67.80;;;;;;5022704;28;20224;-89
2021/05/08 00:20:13;;;;;;;4.07;3.77;;;8.70;67.30;;;;;;5022178;28;20197;-89
2021/05/08 00:22:39;;;;;;;4.13;3.70;;;8.70;67.80;;;;;;5020847;28;20217;-90
2021/05/08 00:25:07;;;;;;;4.37;4.00;;;8.60;67.80;;;;;;5019843;28;20201;-90
2021/05/08 00:27:33;;;;;;;3.80;3.50;;;8.60;67.50;;;;;;5020272;28;20189;-89
2021/05/08 00:29:59;;;;;;;4.80;3.67;;;8.60;67.30;;;;;;5020061;28;20206;-90
2021/05/08 00:32:25;;;;;;;4.50;4.10;;;8.50;67.40;;;;;;5019678;28;20185;-90
2021/05/08 00:34:51;;;;;;;4.27;3.90;;;8.60;67.50;;;;;;5020208;28;20780;-89
2021/05/08 00:37:17;;;;;;;4.50;3.50;;;8.60;67.60;;;;;;5019354;28;20196;-89
2021/05/08 00:39:43;;;;;;;4.63;4.23;;;8.50;67.40;;;;;;5020388;28;20544;-90
2021/05/08 00:42:09;;;;;;;5.37;4.30;;;8.40;67.50;;;;;;5020415;28;20209;-90
2021/05/08 00:44:35;;;;;;;4.80;4.27;;;8.20;68.30;;;;;;5020161;28;20184;-90
2021/05/08 00:47:00;;;;;;;3.83;3.53;;;8.10;68.80;;;;;;5020274;28;20268;-90
2021/05/08 00:49:28;;;;;;;4.73;4.33;;;8.10;69.10;;;;;;5020024;28;20212;-90
2021/05/08 00:51:55;;;;;;;4.60;4.07;;;8.20;68.50;;;;;;5020720;28;20193;-90
2021/05/08 00:54:21;;;;;;;4.80;4.40;;;8.20;68.40;;;;;;5021096;28;20201;-90
2021/05/08 00:56:47;;;;;;;5.47;3.87;;;8.20;68.30;;;;;;5020978;28;20174;-90
2021/05/08 00:59:14;;;;;;;5.60;4.20;;;8.30;68.10;;;;;;5021751;28;20202;-90
2021/05/08 01:01:40;;;;;;;5.63;4.00;;;8.20;67.60;;;;;;5020758;28;20204;-90
2021/05/08 01:04:06;;;;;;;4.40;4.00;;;8.20;67.80;;;;;;5019087;28;20633;-90
2021/05/08 01:06:33;;;;;;;5.43;4.17;;;8.20;68.10;;;;;;5020209;28;20208;-90
2021/05/08 01:08:59;;;;;;;4.93;4.40;;;8.10;68.10;;;;;;5021207;28;20328;-90
2021/05/08 01:11:25;;;;;;;4.23;3.90;;;7.90;68.70;;;;;;5020541;28;20689;-89
2021/05/08 01:13:51;;;;;;;4.80;4.40;;;7.90;68.70;;;;;;5020179;28;20169;-90
2021/05/08 01:16:17;;;;;;;4.00;3.70;;;8.00;68.40;;;;;;5019582;28;20189;-90
2021/05/08 01:18:43;;;;;;;4.83;4.07;;;8.00;68.10;;;;;;5019574;28;20206;-90
2021/05/08 01:21:14;;;;;;;4.60;3.90;;;8.10;68.10;;;;;;5018663;28;20265;-89
2021/05/08 01:23:39;;;;;;;4.13;3.70;;;8.10;67.90;;;;;;5020166;28;20217;-89
2021/05/08 01:26:05;;;;;;;4.60;4.20;;;8.10;67.80;;;;;;5019817;28;20253;-90
2021/05/08 01:28:31;;;;;;;4.80;4.20;;;8.10;67.80;;;;;;5019910;28;20260;-90
2021/05/08 01:30:57;;;;;;;4.10;3.70;;;8.00;68.20;;;;;;5020058;28;20185;-90
2021/05/08 01:33:22;;;;;;;5.00;4.07;;;8.00;67.90;;;;;;5034847;28;20198;-89
2021/05/08 01:35:48;;;;;;;4.30;3.90;;;8.00;68.20;;;;;;5018726;28;20208;-90
2021/05/08 01:38:14;;;;;;;5.67;4.10;;;8.00;67.90;;;;;;5019247;28;20220;-90
2021/05/08 01:40:41;;;;;;;4.90;4.40;;;8.00;67.60;;;;;;5020537;28;20534;-90
2021/05/08 01:43:07;;;;;;;6.17;4.40;;;8.00;68.00;;;;;;5020714;28;20276;-90
2021/05/08 01:45:33;;;;;;;7.10;5.20;;;8.00;67.90;;;;;;5019364;28;20201;-89
2021/05/08 01:48:01;;;;;;;4.63;4.23;;;7.90;68.30;;;;;;5020164;28;20182;-90
2021/05/08 01:50:27;;;;;;;4.20;3.90;;;7.90;68.50;;;;;;5020329;28;20182;-90
2021/05/08 01:52:54;;;;;;;4.73;4.27;;;7.80;68.10;;;;;;5021188;28;20181;-90
2021/05/08 01:55:26;;;;;;;4.60;4.03;;;7.60;69.10;;;;;;5019334;28;20189;-90
2021/05/08 01:57:54;;;;;;;5.03;4.53;;;7.70;69.30;;;;;;5028820;28;20166;-90
2021/05/08 02:00:25;;;;;;;4.70;4.23;;;7.70;68.70;;;;;;5037853;28;20161;-90
2021/05/08 02:02:53;;;;;;;4.63;3.93;;;7.70;68.50;;;;;;5037356;28;20206;-89
2021/05/08 02:05:26;;;;;;;5.50;4.00;;;7.70;68.50;;;;;;5035846;28;20197;-89
2021/05/08 02:07:52;;;;;;;6.10;4.07;;;7.70;68.50;;;;;;5021239;28;20182;-90
2021/05/08 02:10:18;;;;;;;5.00;4.30;;;7.70;68.40;;;;;;5021006;28;20317;-89
2021/05/08 02:12:44;;;;;;;4.50;4.03;;;7.70;68.10;;;;;;5026143;28;20204;-90
2021/05/08 02:15:12;;;;;;;4.87;3.60;;;7.70;68.20;;;;;;5025791;28;20193;-90
2021/05/08 02:17:38;;;;;;;4.23;3.80;;;7.70;68.10;;;;;;5026836;28;20233;-89
2021/05/08 02:20:13;;;;;;;4.50;4.10;;;7.60;68.40;;;;;;5025790;28;20232;-90
2021/05/08 02:22:39;;;;;;;4.73;4.33;;;7.60;68.40;;;;;;5027030;28;20197;-90
2021/05/08 02:25:08;;;;;;;4.07;3.77;;;7.60;68.20;;;;;;5027515;28;20185;-90
2021/05/08 02:27:34;;;;;;;4.20;3.50;;;7.60;68.60;;;;;;5026939;28;20649;-89
2021/05/08 02:30:00;;;;;;;4.73;4.00;;;7.60;68.60;;;;;;5027464;28;20201;-90
2021/05/08 02:32:26;;;;;;;3.97;3.67;;;7.40;69.80;;;;;;5027157;28;20186;-90
2021/05/08 02:34:51;;;;;;;4.00;3.70;;;7.30;69.80;;;;;;5024179;28;20202;-90
2021/05/08 02:37:17;;;;;;;5.20;4.03;;;7.20;69.30;;;;;;5025237;28;20624;-89
2021/05/08 02:39:43;;;;;;;4.10;3.70;;;7.10;70.10;;;;;;5025373;28;20593;-89
2021/05/08 02:42:09;;;;;;;4.17;3.77;;;6.90;70.30;;;;;;5025837;28;20194;-89
2021/05/08 02:44:34;;;;;;;4.03;3.60;;;6.90;69.60;;;;;;5026765;28;20201;-89
2021/05/08 02:47:00;;;;;;;4.03;3.67;;;6.90;70.40;;;;;;5027462;28;20224;-90
2021/05/08 02:49:26;;;;;;;4.13;3.83;;;7.00;70.30;;;;;;5027125;28;20646;-89
2021/05/08 02:51:52;;;;;;;4.80;3.27;;;7.00;70.20;;;;;;5027475;28;20188;-90
2021/05/08 02:54:17;;;;;;;3.80;3.50;;;6.90;69.50;;;;;;5027705;28;20183;-89
2021/05/08 02:56:43;;;;;;;3.90;3.50;;;6.80;70.60;;;;;;5027566;28;20197;-90
2021/05/08 02:59:09;;;;;;;3.90;3.57;;;6.80;71.10;;;;;;5027957;28;20205;-90
2021/05/08 03:01:34;;;;;;;3.90;3.60;;;6.90;70.40;;;;;;5028962;28;20182;-90
2021/05/08 03:04:00;;;;;;;3.83;3.53;;;6.80;70.30;;;;;;5026003;28;20284;-90
2021/05/08 03:06:26;;;;;;;3.93;3.40;;;6.90;70.00;;;;;;5027570;28;20209;-90
2021/05/08 03:08:51;;;;;;;4.70;3.50;;;6.90;69.60;;;;;;5009835;28;20205;-90
2021/05/08 03:11:17;;;;;;;4.03;3.63;;;7.00;69.40;;;;;;5010428;28;20189;-89
2021/05/08 03:13:43;;;;;;;3.87;3.53;;;7.00;69.80;;;;;;5027744;28;20228;-89
2021/05/08 03:16:08;;;;;;;3.30;3.10;;;7.00;69.90;;;;;;5026015;28;20839;-90
2021/05/08 03:18:34;;;;;;;3.80;3.33;;;6.90;69.90;;;;;;5028653;28;20210;-90
2021/05/08 03:21:00;;;;;;;4.13;3.37;;;6.90;70.10;;;;;;5027141;28;20200;-90
2021/05/08 03:23:26;;;;;;;3.77;3.37;;;6.90;69.70;;;;;;5022570;28;20217;-89
2021/05/08 03:25:51;;;;;;;4.20;3.80;;;6.90;70.10;;;;;;5024616;28;20173;-90
2021/05/08 03:28:17;;;;;;;3.90;3.50;;;6.90;69.50;;;;;;5022677;28;20213;-90
2021/05/08 03:30:43;;;;;;;4.10;3.60;;;6.90;69.40;;;;;;5023733;28;20190;-90
2021/05/08 03:33:09;;;;;;;3.37;3.10;;;6.90;69.10;;;;;;5029642;28;20245;-89
2021/05/08 03:35:35;;;;;;;3.30;3.00;;;6.90;69.70;;;;;;5038742;28;20177;-89
2021/05/08 03:38:01;;;;;;;3.97;3.27;;;6.90;69.40;;;;;;5035899;28;20236;-89
2021/05/08 03:40:26;;;;;;;3.57;3.30;;;6.90;69.40;;;;;;5026974;28;20193;-90
2021/05/08 03:42:52;;;;;;;3.63;3.33;;;6.80;69.00;;;;;;5026118;28;20209;-89
2021/05/08 03:45:18;;;;;;;3.70;3.40;;;6.80;69.40;;;;;;5026167;28;20237;-90
2021/05/08 03:47:43;;;;;;;3.90;3.60;;;6.90;69.50;;;;;;5022382;28;20689;-90
2021/05/08 03:50:09;;;;;;;4.03;3.50;;;6.90;69.20;;;;;;5024336;28;20194;-90
2021/05/08 03:52:36;;;;;;;7.30;3.30;;;6.80;69.10;;;;;;5022228;28;20723;-90
2021/05/08 03:55:03;;;;;;;3.70;3.40;;;6.70;69.70;;;;;;5023457;28;20189;-90
2021/05/08 03:57:29;;;;;;;3.93;3.63;;;6.70;69.40;;;;;;5023655;28;20182;-90
2021/05/08 03:59:56;;;;;;;3.70;3.40;;;6.70;69.70;;;;;;5023393;28;20281;-90
2021/05/08 04:02:22;;;;;;;4.13;3.83;;;6.70;70.90;;;;;;5023782;28;20263;-89
2021/05/08 04:04:47;;;;;;;3.73;3.43;;;6.60;69.30;;;;;;5023908;28;20185;-90
2021/05/08 04:07:13;;;;;;;4.30;3.90;;;6.60;70.00;;;;;;5022386;28;20209;-88
2021/05/08 04:09:39;;;;;;;4.00;3.60;;;6.60;71.00;;;;;;5022980;28;20214;-89
2021/05/08 04:12:05;;;;;;;3.90;3.60;;;6.40;70.60;;;;;;5022015;28;20169;-90
2021/05/08 04:14:31;;;;;;;3.63;3.33;;;6.50;70.60;;;;;;5022671;28;20182;-89
2021/05/08 04:16:56;;;;;;;4.30;3.90;;;6.50;71.10;;;;;;5039212;28;20186;-89
2021/05/08 04:19:22;;;;;;;4.07;3.77;;;6.50;70.40;;;;;;5021971;28;20201;-89
2021/05/08 04:21:48;;;;;;;3.50;3.20;;;6.40;70.60;;;;;;5005380;28;20213;-89
2021/05/08 04:24:13;;;;;;;4.40;3.53;;;6.40;70.80;;;;;;5022623;28;20234;-88
2021/05/08 04:26:39;;;;;;;4.57;3.93;;;6.50;71.00;;;;;;5022565;28;20186;-88
2021/05/08 04:29:05;;;;;;;3.80;3.50;;;6.50;70.90;;;;;;5023716;28;20201;-87
2021/05/08 04:31:30;;;;;;;4.17;3.77;;;6.60;70.20;;;;;;5023447;28;20178;-88
2021/05/08 04:33:56;;;;;;;3.97;3.50;;;6.40;70.60;;;;;;5022463;28;20182;-87
2021/05/08 04:36:22;;;;;;;4.20;3.80;;;6.20;72.40;;;;;;5019876;28;20190;-88
2021/05/08 04:38:48;;;;;;;4.30;3.90;;;6.10;73.10;;;;;;5022597;28;20228;-88
2021/05/08 04:41:13;;;;;;;4.67;4.03;;;5.90;74.50;;;;;;5023644;28;20197;-87
2021/05/08 04:43:41;;;;;;;4.23;3.83;;;5.90;75.20;;;;;;5021046;28;20237;-88
2021/05/08 04:46:07;;;;;;;3.97;3.57;;;6.00;74.90;;;;;;5024162;28;20169;-88
2021/05/08 04:48:33;;;;;;;4.13;3.73;;;6.00;73.60;;;;;;5022783;28;20217;-88
2021/05/08 04:51:00;;;;;;;4.63;4.23;;;6.10;72.80;;;;;;5006024;28;20182;-88
2021/05/08 04:53:26;;;;;;;4.37;4.07;;;6.00;71.80;;;;;;5023411;28;20186;-87
2021/05/08 04:55:52;;;;;;;4.57;4.10;;;5.90;73.40;;;;;;5022548;28;20190;-87
2021/05/08 04:58:19;;;;;;;4.20;3.80;;;5.90;73.30;;;;;;5023850;28;20203;-88
2021/05/08 05:00:45;;;;;;;5.53;3.60;;;5.80;74.00;;;;;;5020961;28;20200;-88
2021/05/08 05:03:10;;;;;;;5.23;3.93;;;5.90;73.90;;;;;;5022338;28;20206;-87
2021/05/08 05:05:36;;;;;;;5.57;3.87;;;5.80;74.60;;;;;;5020866;28;20178;-87
2021/05/08 05:08:02;;;;;;;4.10;3.70;;;5.80;74.90;;;;;;5020796;28;20178;-88
2021/05/08 05:10:27;;;;;;;6.50;3.80;;;5.90;74.80;;;;;;5020555;28;20204;-87
2021/05/08 05:12:54;;;;;;;7.80;4.40;;;6.00;74.50;;;;;;5019233;28;20186;-88
2021/05/08 05:15:20;;;;;;;8.60;4.03;;;6.10;74.50;;;;;;5019373;28;20217;-87
2021/05/08 05:17:46;;;;;;;7.00;4.20;;;6.30;74.00;;;;;;5017866;28;20209;-88
2021/05/08 05:20:13;;;;;;;7.37;4.83;;;6.30;73.80;;;;;;5019024;28;20185;-87
2021/05/08 05:22:39;;;;;;;8.17;4.43;;;6.40;73.70;;;;;;5019052;28;20251;-88
2021/05/08 05:25:06;;;;;;;91.07;13.63;;;6.50;73.30;;;;;;5018956;28;20668;-89
2021/05/08 05:27:32;;;;;;;25.17;6.43;;;6.50;74.10;;;;;;5019145;28;20250;-88
2021/05/08 05:29:59;;;;;;;7.87;4.43;;;6.60;72.90;;;;;;5019295;28;20569;-88
2021/05/08 05:32:25;;;;;;;5.43;4.47;;;6.70;73.00;;;;;;5019059;28;20261;-88
2021/05/08 05:34:50;;;;;;;10.70;4.50;;;6.80;73.20;;;;;;5019618;28;20205;-89
2021/05/08 05:37:16;;;;;;;5.03;4.17;;;6.80;73.00;;;;;;5018852;28;20182;-88
2021/05/08 05:39:42;;;;;;;5.50;4.37;;;6.90;74.30;;;;;;5019732;28;20285;-89
2021/05/08 05:42:08;;;;;;;5.80;4.77;;;6.80;74.70;;;;;;5019116;28;20194;-87
2021/05/08 05:44:34;;;;;;;5.27;4.77;;;6.80;74.80;;;;;;5019521;28;20205;-89
2021/05/08 05:47:00;;;;;;;8.97;4.03;;;6.90;74.90;;;;;;5017282;28;20634;-89
2021/05/08 05:49:25;;;;;;;5.33;4.50;;;7.00;74.60;;;;;;5019566;28;20224;-89
2021/05/08 05:51:51;;;;;;;4.83;4.37;;;7.00;74.90;;;;;;5018784;28;20205;-87
2021/05/08 05:54:20;;;;;;;6.03;4.77;;;7.20;75.10;;;;;;5021532;28;20197;-91
2021/05/08 05:56:46;;;;;;;5.90;4.50;;;7.20;75.20;;;;;;5020752;28;20661;-90
2021/05/08 05:59:11;;;;;;;5.50;4.30;;;7.30;75.20;;;;;;5018204;28;20197;-89
2021/05/08 06:01:37;;;;;;;4.73;4.33;;;7.30;75.10;;;;;;5019051;28;20256;-90
2021/05/08 06:04:05;;;;;;;4.60;4.30;;;7.30;75.40;;;;;;5021320;28;20241;-90
2021/05/08 06:06:32;;;;;;;5.00;4.37;;;7.50;75.00;;;;;;5019355;28;20352;-90
2021/05/08 06:08:58;;;;;;;5.50;4.80;;;7.60;74.90;;;;;;5019301;28;20198;-90
2021/05/08 06:11:24;;;;;;;5.37;4.87;;;7.70;74.50;;;;;;5018161;28;20180;-91
2021/05/08 06:13:50;;;;;;;5.20;4.80;;;7.80;75.40;;;;;;5019186;28;20193;-90
2021/05/08 06:16:15;;;;;;;5.13;4.63;;;7.80;75.60;;;;;;5019895;28;20196;-90
2021/05/08 06:18:41;;;;;;;5.83;4.90;;;7.80;76.50;;;;;;5019865;28;20213;-89
2021/05/08 06:21:07;;;;;;;4.73;4.33;;;8.00;75.80;;;;;;5019596;28;20197;-89
2021/05/08 06:23:33;;;;;;;4.27;3.97;;;8.00;75.30;;;;;;5019743;28;20282;-90
2021/05/08 06:25:58;;;;;;;4.43;4.03;;;8.20;75.50;;;;;;5018501;28;20609;-90
2021/05/08 06:28:24;;;;;;;4.60;4.20;;;8.20;74.30;;;;;;5017979;28;20666;-88
2021/05/08 06:30:53;;;;;;;6.13;4.23;;;8.30;72.50;;;;;;5016934;28;20286;-88
2021/05/08 06:33:19;;;;;;;4.80;4.40;;;8.50;71.80;;;;;;5017835;28;20213;-89
2021/05/08 06:35:44;;;;;;;5.27;4.77;;;8.50;72.60;;;;;;5005349;28;20281;-88
2021/05/08 06:38:10;;;;;;;5.03;4.63;;;8.60;71.00;;;;;;5007016;28;20220;-88
2021/05/08 06:40:36;;;;;;;5.97;4.80;;;8.50;71.70;;;;;;5017973;28;20221;-87
2021/05/08 06:43:01;;;;;;;5.50;5.00;;;8.60;72.10;;;;;;5017459;28;20252;-87
2021/05/08 06:45:27;;;;;;;4.73;4.33;;;8.60;71.40;;;;;;5016160;28;20220;-86
2021/05/08 06:47:59;;;;;;;5.40;4.90;;;8.60;70.90;;;;;;5016701;28;20178;-87
2021/05/08 06:50:25;;;;;;;5.73;5.23;;;8.90;69.20;;;;;;5018383;28;20189;-86
2021/05/08 06:52:51;;;;;;;5.83;5.13;;;9.00;68.70;;;;;;5033446;28;20223;-84
2021/05/08 06:55:17;;;;;;;5.97;4.57;;;9.10;68.70;;;;;;5035315;28;20170;-87
2021/05/08 06:57:42;;;;;;;6.17;5.60;;;9.10;67.90;;;;;;5036559;28;20208;-86
2021/05/08 07:00:08;;;;;;;6.07;5.47;;;9.20;68.30;;;;;;5030780;28;20194;-86
2021/05/08 07:02:34;;;;;;;5.73;5.23;;;9.30;69.50;;;;;;5020825;28;20221;-85
2021/05/08 07:05:00;;;;;;;11.70;5.83;;;9.40;69.00;;;;;;5022100;28;20193;-86
2021/05/08 07:07:25;;;;;;;5.97;5.43;;;9.40;67.20;;;;;;5019910;28;20184;-88
2021/05/08 07:09:51;;;;;;;7.73;5.20;;;9.50;66.50;;;;;;5023594;28;20225;-88
2021/05/08 07:12:17;;;;;;;5.57;5.10;;;9.60;65.40;;;;;;5022517;28;20181;-88
2021/05/08 07:14:43;;;;;;;24.27;7.23;;;9.70;66.30;;;;;;5024915;28;20186;-88
2021/05/08 07:17:08;;;;;;;7.10;5.60;;;9.60;66.50;;;;;;5023620;28;20190;-87
2021/05/08 07:19:34;;;;;;;1013.07;95.83;;;9.70;64.70;;;;;;5021657;28;20348;-88
2021/05/08 07:22:01;;;;;;;1738.73;189.87;;;9.70;66.30;;;;;;5020578;28;20208;-87
2021/05/08 07:24:27;;;;;;;12.23;7.00;;;9.80;65.70;;;;;;5036310;28;20194;-87
2021/05/08 07:26:53;;;;;;;6.93;5.27;;;9.90;65.90;;;;;;5022054;28;20264;-87
2021/05/08 07:29:19;;;;;;;100.07;16.57;;;9.90;66.40;;;;;;5020211;28;20410;-87
2021/05/08 07:31:45;;;;;;;15.70;6.13;;;10.10;64.40;;;;;;5020831;28;20667;-86
2021/05/08 07:34:11;;;;;;;26.80;6.93;;;10.30;63.30;;;;;;5020455;28;20189;-86
2021/05/08 07:36:37;;;;;;;5.97;4.90;;;10.30;62.40;;;;;;5021212;28;20555;-87
2021/05/08 07:39:03;;;;;;;12.20;9.53;;;10.30;63.00;;;;;;5021274;28;20245;-88
2021/05/08 07:41:29;;;;;;;10.93;8.97;;;10.30;63.90;;;;;;5021791;28;20686;-88
2021/05/08 07:43:54;;;;;;;7.07;6.37;;;10.30;64.30;;;;;;5002981;28;20201;-88
2021/05/08 07:46:20;;;;;;;7.27;6.10;;;10.30;66.10;;;;;;5019622;28;20185;-88
2021/05/08 07:48:46;;;;;;;8.20;7.37;;;10.50;64.40;;;;;;5017552;28;20205;-89
2021/05/08 07:51:11;;;;;;;42.30;9.23;;;10.70;63.60;;;;;;5019235;28;20205;-89
2021/05/08 07:53:37;;;;;;;5.87;5.30;;;11.00;62.80;;;;;;5020933;28;20200;-88
2021/05/08 07:56:03;;;;;;;6.20;5.50;;;11.20;58.90;;;;;;5022208;28;20197;-90
2021/05/08 07:58:29;;;;;;;7.13;4.93;;;11.20;58.80;;;;;;5021818;28;20605;-89
2021/05/08 08:00:54;;;;;;;5.40;4.87;;;11.30;57.20;;;;;;5020235;28;20206;-89
2021/05/08 08:03:20;;;;;;;6.50;5.17;;;11.40;56.60;;;;;;5021318;28;20214;-90
2021/05/08 08:05:46;;;;;;;8.10;4.80;;;11.50;55.30;;;;;;5021306;28;20188;-90
2021/05/08 08:08:11;;;;;;;5.77;5.17;;;11.60;54.40;;;;;;5018756;28;20220;-89
2021/05/08 08:10:37;;;;;;;7.33;5.60;;;11.80;55.20;;;;;;5019587;28;20190;-89
2021/05/08 08:13:03;;;;;;;6.03;5.33;;;11.60;57.30;;;;;;5027760;28;20191;-90
2021/05/08 08:15:29;;;;;;;5.17;4.67;;;11.60;57.10;;;;;;5035409;28;20221;-90
2021/05/08 08:17:55;;;;;;;5.50;5.07;;;11.80;56.30;;;;;;5026779;28;20205;-89
2021/05/08 08:20:21;;;;;;;5.63;5.10;;;11.80;56.90;;;;;;5004624;28;20695;-90
2021/05/08 08:22:47;;;;;;;5.43;4.90;;;12.10;55.80;;;;;;5023078;28;20222;-90
2021/05/08 08:25:14;;;;;;;4.97;4.53;;;12.30;53.50;;;;;;5021564;28;20580;-89
2021/05/08 08:27:41;;;;;;;5.93;5.33;;;12.50;52.80;;;;;;5022360;28;20218;-88
2021/05/08 08:30:11;;;;;;;5.90;5.37;;;12.50;51.60;;;;;;5024216;28;20247;-89
2021/05/08 08:32:36;;;;;;;5.00;4.60;;;12.40;51.80;;;;;;5023255;28;20187;-88
2021/05/08 08:35:03;;;;;;;5.00;4.60;;;12.30;51.90;;;;;;5022701;28;20214;-89
2021/05/08 08:37:28;;;;;;;5.67;5.13;;;12.50;51.30;;;;;;5023327;28;20204;-89
2021/05/08 08:39:54;;;;;;;4.63;4.20;;;12.80;52.30;;;;;;5022541;28;20277;-89
2021/05/08 08:42:20;;;;;;;6.53;5.40;;;12.70;52.30;;;;;;5010787;28;20205;-89
2021/05/08 08:44:46;;;;;;;5.43;4.73;;;12.70;51.00;;;;;;5002696;28;20184;-88
2021/05/08 08:47:28;;;;;;;6.33;4.50;;;12.80;51.60;;;;;;5016142;28;20176;-91
2021/05/08 08:49:58;;;;;;;5.33;4.83;;;12.90;51.00;;;;;;5021459;28;20197;-90
2021/05/08 08:52:24;;;;;;;4.53;4.20;;;13.20;50.00;;;;;;5004536;28;20208;-90
2021/05/08 08:54:50;;;;;;;5.10;4.70;;;13.40;49.20;;;;;;5020344;28;20185;-89
2021/05/08 08:57:19;;;;;;;4.73;4.33;;;13.40;49.40;;;;;;5018300;28;20189;-91
2021/05/08 08:59:46;;;;;;;5.03;4.63;;;13.10;50.50;;;;;;5024694;28;20208;-90
2021/05/08 09:02:11;;;;;;;5.77;4.60;;;12.90;50.80;;;;;;5029056;28;20184;-90
2021/05/08 09:04:39;;;;;;;5.33;4.43;;;13.00;50.90;;;;;;5030357;28;20268;-91
2021/05/08 09:07:05;;;;;;;5.20;4.77;;;13.30;50.40;;;;;;5029913;28;20195;-90
2021/05/08 09:09:31;;;;;;;9.20;5.17;;;13.30;50.30;;;;;;5029520;28;20225;-91
2021/05/08 09:11:57;;;;;;;5.27;4.60;;;13.40;51.40;;;;;;5029001;28;20189;-91
2021/05/08 09:14:23;;;;;;;5.43;4.40;;;13.80;48.70;;;;;;5030137;28;20193;-90
2021/05/08 09:17:16;;;;;;;5.50;5.00;;;14.20;48.80;;;;;;5029415;28;20208;-91
2021/05/08 09:19:48;;;;;;;7.00;5.87;;;14.30;48.80;;;;;;5029481;28;20309;-90
2021/05/08 09:22:34;;;;;;;7.87;7.03;;;14.10;48.10;;;;;;5027993;28;20190;-91
2021/05/08 09:25:04;;;;;;;4.60;4.23;;;14.20;49.00;;;;;;5029494;28;20170;-90
2021/05/08 09:27:50;;;;;;;5.70;4.67;;;14.40;46.80;;;;;;5029341;28;20178;-91
2021/05/08 09:30:28;;;;;;;4.93;3.80;;;14.50;46.80;;;;;;5021095;28;20190;-90
2021/05/08 09:32:58;;;;;;;4.50;3.73;;;14.50;46.20;;;;;;5020725;28;20557;-89
2021/05/08 09:35:25;;;;;;;4.17;3.77;;;14.80;44.70;;;;;;5023294;28;20193;-90
2021/05/08 09:38:08;;;;;;;5.13;4.63;;;15.00;45.30;;;;;;5027886;28;20182;-90
2021/05/08 09:40:36;;;;;;;5.77;4.70;;;15.50;44.50;;;;;;5026758;28;20182;-90
2021/05/08 09:43:15;;;;;;;4.53;3.63;;;15.70;44.00;;;;;;5027167;28;20240;-90
2021/05/08 09:45:43;;;;;;;3.97;3.63;;;15.70;41.70;;;;;;5026594;28;20207;-90
2021/05/08 09:48:35;;;;;;;4.93;4.47;;;16.00;42.20;;;;;;5027407;28;20208;-90
2021/05/08 09:51:16;;;;;;;4.53;4.13;;;16.20;40.90;;;;;;5027407;28;20216;-91
2021/05/08 09:53:43;;;;;;;5.10;3.80;;;16.30;41.90;;;;;;5026052;28;20245;-91
2021/05/08 09:56:36;;;;;;;5.00;4.00;;;16.30;42.50;;;;;;5025693;28;20373;-91
2021/05/08 09:59:24;;;;;;;5.33;4.17;;;16.40;41.50;;;;;;5027530;28;20244;-91
2021/05/08 10:02:11;;;;;;;4.20;3.80;;;16.60;41.70;;;;;;5024128;28;20185;-93
2021/05/08 10:04:58;;;;;;;4.20;3.13;;;16.90;40.30;;;;;;5019751;28;20259;-94
2021/05/08 10:07:29;;;;;;;3.90;3.40;;;17.10;39.90;;;;;;5018997;28;20169;-93
2021/05/08 10:09:57;;;;;;;3.50;3.20;;;17.40;39.10;;;;;;5019745;28;20200;-91
2021/05/08 10:12:25;;;;;;;4.43;3.37;;;17.40;39.70;;;;;;5017596;28;20661;-93
2021/05/08 10:14:55;;;;;;;3.70;3.33;;;17.60;39.80;;;;;;5018779;28;20323;-93
2021/05/08 10:17:24;;;;;;;3.97;3.67;;;17.70;39.50;;;;;;5019801;28;20167;-93
2021/05/08 10:19:52;;;;;;;3.70;3.40;;;17.50;39.60;;;;;;5019947;28;20204;-93
2021/05/08 10:22:19;;;;;;;3.70;3.40;;;17.00;38.80;;;;;;5020684;28;20201;-92
2021/05/08 10:24:47;;;;;;;3.80;3.40;;;17.40;39.10;;;;;;5018590;28;20193;-92
2021/05/08 10:27:14;;;;;;;3.70;3.37;;;17.50;38.70;;;;;;5018436;28;20182;-92
2021/05/08 10:29:48;;;;;;;5.10;3.50;;;17.50;38.70;;;;;;5020861;28;20201;-93
2021/05/08 10:32:19;;;;;;;3.90;3.60;;;17.70;39.70;;;;;;5001559;28;20189;-92
2021/05/08 10:34:52;;;;;;;4.20;2.77;;;17.60;39.70;;;;;;5005866;28;20320;-93
2021/05/08 10:37:18;;;;;;;5.33;3.27;;;17.10;40.00;;;;;;5003831;28;20201;-91
2021/05/08 10:40:03;;;;;;;5.10;3.23;;;17.40;42.60;;;;;;5005847;28;20207;-91
2021/05/08 10:42:32;;;;;;;4.90;3.40;;;17.80;39.40;;;;;;5007579;28;20218;-90
2021/05/08 10:44:59;;;;;;;4.72;3.30;;;18.10;38.30;;;;;;5005485;28;20278;-92
2021/05/08 10:47:45;;;;;;;4.25;3.20;;;18.30;39.20;;;;;;5007103;28;20182;-90
2021/05/08 10:50:21;;;;;;;7.03;3.40;;;18.50;38.70;;;;;;5010089;28;20204;-91
2021/05/08 10:53:06;;;;;;;3.42;3.15;;;18.70;37.90;;;;;;5032152;28;20230;-91
2021/05/08 10:55:41;;;;;;;4.25;3.05;;;18.90;36.90;;;;;;5014245;28;20192;-92
2021/05/08 10:58:16;;;;;;;3.38;2.90;;;18.90;36.10;;;;;;5021021;28;20243;-91
2021/05/08 11:00:49;;;;;;;4.13;2.72;;;18.70;36.30;;;;;;5025556;28;20184;-93
2021/05/08 11:03:18;;;;;;;3.30;3.00;;;18.80;36.30;;;;;;5026940;28;20213;-91
2021/05/08 11:05:54;;;;;;;4.70;2.90;;;18.90;35.00;;;;;;5027876;28;20187;-92
2021/05/08 11:08:29;;;;;;;3.58;2.70;;;18.90;36.20;;;;;;5023312;28;20217;-91
2021/05/08 11:10:59;;;;;;;3.05;2.85;;;19.10;35.50;;;;;;5024501;28;20179;-93
2021/05/08 11:13:41;;;;;;;2.97;2.78;;;18.90;36.30;;;;;;5025692;28;20184;-89
2021/05/08 11:16:12;;;;;;;3.38;3.08;;;18.70;35.90;;;;;;5025438;28;20176;-91
2021/05/08 11:21:24;;;;;;;3.23;2.93;;;18.70;36.20;;;;;;5004963;28;20193;-88
2021/05/08 11:24:01;;;;;;;5.20;3.00;;;18.90;36.00;;;;;;5023505;28;20266;-88
2021/05/08 11:26:30;;;;;;;4.20;3.42;;;18.90;35.10;;;;;;5016198;28;20186;-89
2021/05/08 11:29:03;;;;;;;4.20;3.83;;;18.80;35.70;;;;;;5022700;28;20212;-89
2021/05/08 11:31:36;;;;;;;4.93;3.53;;;18.90;34.50;;;;;;5021692;28;20209;-89
2021/05/08 11:34:24;;;;;;;3.88;3.10;;;18.70;36.40;;;;;;5021311;28;20212;-87
2021/05/08 11:37:21;;;;;;;4.50;3.60;;;19.10;35.60;;;;;;5034977;28;20220;-90
2021/05/08 11:39:47;;;;;;;4.03;2.88;;;19.50;34.70;;;;;;5027048;28;20217;-90
2021/05/08 11:42:14;;;;;;;3.85;2.88;;;19.60;35.00;;;;;;5023571;28;20236;-90
2021/05/08 11:44:42;;;;;;;3.35;3.05;;;20.10;34.30;;;;;;5032224;28;20196;-87
2021/05/08 11:47:28;;;;;;;4.95;3.38;;;20.10;35.10;;;;;;5037631;28;20193;-91
2021/05/08 11:50:05;;;;;;;4.18;3.53;;;20.10;35.10;;;;;;5037289;28;20185;-89
2021/05/08 11:52:41;;;;;;;3.42;3.13;;;20.20;34.00;;;;;;5032543;28;20162;-89
2021/05/08 11:55:25;;;;;;;4.60;2.95;;;20.20;33.90;;;;;;5023614;28;20239;-90
2021/05/08 11:57:59;;;;;;;3.58;3.22;;;20.20;33.90;;;;;;5021406;28;20528;-91
2021/05/08 12:00:29;;;;;;;3.60;3.30;;;20.20;33.30;;;;;;5024413;28;20247;-89
2021/05/08 12:03:14;;;;;;;4.80;3.72;;;20.10;34.10;;;;;;5024424;28;20208;-94
2021/05/08 12:05:41;;;;;;;3.53;3.10;;;20.10;33.90;;;;;;5022859;28;20173;-93
2021/05/08 12:08:08;;;;;;;3.97;3.67;;;19.90;34.70;;;;;;5022135;28;20180;-93
2021/05/08 12:10:43;;;;;;;11.30;6.85;;;20.10;34.20;;;;;;5027283;28;20182;-93
2021/05/08 12:13:10;;;;;;;5.60;3.10;;;19.90;34.70;;;;;;5023696;28;20197;-95
2021/05/08 12:15:41;;;;;;;3.20;2.90;;;19.80;34.00;;;;;;5027085;28;20237;-94
2021/05/08 12:18:11;;;;;;;4.05;3.15;;;19.70;33.80;;;;;;5021235;28;20241;-94
2021/05/08 12:20:42;;;;;;;3.05;2.70;;;19.70;34.00;;;;;;4997997;28;20222;-93
2021/05/08 12:23:26;;;;;;;14.57;3.88;;;19.80;33.90;;;;;;5021584;28;20213;-94
2021/05/08 12:26:15;;;;;;;12.82;5.50;;;19.90;33.80;;;;;;5023366;28;20231;-92
2021/05/08 12:28:56;;;;;;;7.07;6.30;;;20.00;34.30;;;;;;5021686;28;20199;-92
2021/05/08 12:31:32;;;;;;;39.88;6.65;;;19.90;34.50;;;;;;5019580;28;20172;-92
2021/05/08 12:34:05;;;;;;;6.43;3.47;;;20.00;34.00;;;;;;5019473;28;20176;-93
2021/05/08 12:36:34;;;;;;;3.38;3.08;;;19.80;34.60;;;;;;5017234;28;20182;-92
2021/05/08 12:39:18;;;;;;;8.07;3.85;;;19.40;33.80;;;;;;5022323;28;20593;-92
2021/05/08 12:41:53;;;;;;;23.13;5.72;;;19.60;34.70;;;;;;5021561;28;20187;-91
2021/05/08 12:44:31;;;;;;;150.60;20.02;;;19.60;35.30;;;;;;5020589;28;20215;-91
2021/05/08 12:47:20;;;;;;;5.65;4.95;;;19.80;34.70;;;;;;5023010;28;20179;-94
2021/05/08 12:50:07;;;;;;;3.67;3.30;;;19.80;34.90;;;;;;5026945;28;20221;-92
2021/05/08 12:52:35;;;;;;;17.85;4.40;;;19.60;34.70;;;;;;5022111;28;20174;-91
2021/05/08 12:55:01;;;;;;;8.23;4.20;;;19.60;36.60;;;;;;5026496;28;20197;-91
2021/05/08 12:57:28;;;;;;;15.60;3.72;;;19.80;36.40;;;;;;5024933;28;20187;-92
2021/05/08 12:59:59;;;;;;;4.65;3.30;;;20.00;36.60;;;;;;5025588;28;20248;-91
2021/05/08 13:02:28;;;;;;;7.57;3.20;;;20.00;36.00;;;;;;5018926;28;20190;-91